HELX  Luxor International Airport

Add Bookmark

Luxor, Egypt

Status IATA
Operational LXR
Latitude Longitude
25° 40' 15" N 32° 42' 23" E
25.671000 32.706600
Local (DST + 2) UTC (GMT + 2)
Jan 28, 2015 08:10 Jan 28, 2015 18:10
Sunrise-Sunset Local UTC
Begin Civil Twilight 06:08 04:08
Sunrise 06:33 04:33
Sunset 05:31 15:31
End Civil Twilight 05:55 15:55

Current Weather

METAR Observed VFR
HELX 281700Z 00000KT CAVOK 20/12 Q1013 NOSIG Wed, Jan 28, 2015 @ 17:00 UTC
(1 Hour, 10 Minutes ago)
Visual Flight Rules
Wind Visibility Clouds Conditions
Calm 10 km or more
  • Clear skies
  • No significant weather
Temperatures Readings Precipitation
Current Temp 20°C (68°F)
Dewpoint 12°C (54°F)
Humidity 60%
Altimeter 29.91"Hg
Sea Level Pressure 1013mb
Field Elevation 288.71'
None Recorded

Forecast Weather

TAF
TAF HELX 281700Z 2818/2924 34005KT CAVOK
From To
Wed, Jan 28, 2015 @ 18:00 UTC Fri, Jan 30, 2015 @ 00:00 UTC
Wind Visibility Conditions
340° at 5 knots (9 kph) 10 km or more
  • No significant weather

24 Hour Weather History

Loading
-

24 Hour Weather Graphs

Loading
-

CheckWX.com is intended as a tool to help pilots better visualize weather data. It is not intended as a substitute for an official weather briefing obtained from a Flight Service Station. CheckWX.com does not meet the FAA requirements for an official pre-flight weather briefing. Therefore, it's important that pilots still call and obtain an official FSS pre-flight weather briefing.